createdAt,value
2022-10-13T00:05:02.358Z,3
2022-10-13T00:10:14.480Z,3
2022-10-13T00:15:26.440Z,4
2022-10-13T00:20:38.584Z,4
2022-10-13T00:25:50.551Z,3
2022-10-13T00:31:02.565Z,3
2022-10-13T00:36:14.469Z,3
2022-10-13T00:41:26.633Z,3
2022-10-13T00:46:38.620Z,3
2022-10-13T00:51:50.523Z,4
2022-10-13T00:57:02.653Z,4
2022-10-13T01:02:14.609Z,4
2022-10-13T01:07:26.659Z,4
2022-10-13T01:12:38.782Z,4
2022-10-13T01:17:50.589Z,4
2022-10-13T01:23:02.559Z,4
2022-10-13T01:28:15.166Z,4
2022-10-13T01:33:27.157Z,4
2022-10-13T01:43:51.424Z,4
2022-10-13T01:49:03.617Z,4
2022-10-13T01:54:15.609Z,4
2022-10-13T01:59:27.743Z,4
2022-10-13T02:04:39.768Z,3
2022-10-13T02:09:54.141Z,3
2022-10-13T02:15:05.610Z,3
2022-10-13T02:20:17.479Z,3
2022-10-13T02:25:29.371Z,3
2022-10-13T02:30:41.644Z,3
2022-10-13T02:35:53.529Z,3
2022-10-13T02:41:05.419Z,3
2022-10-13T02:46:17.512Z,3
2022-10-13T02:51:29.460Z,3
2022-10-13T02:56:41.409Z,3
2022-10-13T03:01:53.621Z,3
2022-10-13T03:07:05.396Z,2
2022-10-13T03:12:19.179Z,2
2022-10-13T03:17:30.975Z,2
2022-10-13T03:22:50.467Z,2
2022-10-13T03:28:01.299Z,2
2022-10-13T03:33:13.283Z,2
2022-10-13T03:38:25.290Z,2
2022-10-13T03:43:37.207Z,2
2022-10-13T03:48:49.345Z,2
2022-10-13T03:54:01.158Z,2
2022-10-13T03:59:13.010Z,2
2022-10-13T04:04:24.964Z,2
2022-10-13T04:09:36.889Z,2
2022-10-13T04:14:48.718Z,2
2022-10-13T04:20:00.813Z,2
2022-10-13T04:25:12.799Z,2
2022-10-13T04:30:24.788Z,2
2022-10-13T04:35:36.672Z,2
2022-10-13T04:40:48.520Z,2
2022-10-13T04:46:00.389Z,2
2022-10-13T04:51:12.223Z,2
2022-10-13T04:56:23.899Z,1
2022-10-13T05:01:35.759Z,2
2022-10-13T05:07:20.913Z,2
2022-10-13T05:12:27.795Z,2
2022-10-13T05:17:39.230Z,2
2022-10-13T05:22:51.133Z,2
2022-10-13T05:28:02.943Z,2
2022-10-13T05:33:14.903Z,2
2022-10-13T05:38:27.026Z,2
2022-10-13T05:43:38.733Z,2
2022-10-13T05:48:50.395Z,2
2022-10-13T05:54:02.190Z,2
2022-10-13T05:59:14.012Z,2
2022-10-13T06:04:35.219Z,2
2022-10-13T06:09:48.555Z,2
2022-10-13T06:15:00.275Z,2
2022-10-13T06:20:12.031Z,1
2022-10-13T06:25:23.944Z,2
2022-10-13T06:30:35.805Z,1
2022-10-13T06:35:48.160Z,1
2022-10-13T06:41:00.003Z,1
2022-10-13T06:46:11.867Z,1
2022-10-13T06:51:24.150Z,1
2022-10-13T06:56:36.256Z,1
2022-10-13T07:01:48.069Z,1
2022-10-13T07:06:59.882Z,1
2022-10-13T07:12:11.832Z,0
2022-10-13T07:17:24.101Z,1
2022-10-13T07:22:35.722Z,0
2022-10-13T07:27:48.004Z,0
2022-10-13T07:32:59.763Z,0
2022-10-13T07:38:11.802Z,0
2022-10-13T07:43:24.022Z,0
2022-10-13T07:48:35.932Z,0
2022-10-13T07:53:47.940Z,0
2022-10-13T07:59:00.194Z,0
2022-10-13T08:04:12.191Z,2
2022-10-13T08:09:24.360Z,4
2022-10-13T08:14:37.279Z,6
2022-10-13T08:19:48.990Z,6
2022-10-13T08:25:01.252Z,10
2022-10-13T08:30:13.949Z,11
2022-10-13T08:35:25.942Z,11
2022-10-13T08:40:38.103Z,11
2022-10-13T08:45:50.328Z,12
2022-10-13T08:51:02.543Z,14
2022-10-13T08:56:14.683Z,14
2022-10-13T09:01:27.171Z,14
2022-10-13T09:06:39.294Z,17
2022-10-13T09:11:51.477Z,20
2022-10-13T09:17:04.197Z,19
2022-10-13T09:22:16.484Z,20
2022-10-13T09:27:28.795Z,22
2022-10-13T09:32:41.104Z,20
2022-10-13T09:37:53.214Z,21
2022-10-13T09:43:05.584Z,22
2022-10-13T09:48:18.130Z,24
2022-10-13T09:53:30.252Z,25
2022-10-13T09:58:42.765Z,29
2022-10-13T10:03:55.403Z,29
2022-10-13T10:09:07.927Z,32
2022-10-13T10:14:19.967Z,33
2022-10-13T10:19:32.142Z,33
2022-10-13T10:24:44.468Z,34
2022-10-13T10:29:56.860Z,37
2022-10-13T10:35:09.830Z,37
2022-10-13T10:40:21.927Z,40
2022-10-13T10:45:34.289Z,93
2022-10-13T10:50:46.953Z,88
2022-10-13T10:55:58.972Z,88
2022-10-13T11:01:11.673Z,83
2022-10-13T11:06:24.138Z,81
2022-10-13T11:11:38.710Z,77
2022-10-13T11:16:53.753Z,64
2022-10-13T11:22:08.116Z,58
2022-10-13T11:27:24.483Z,57
2022-10-13T11:32:38.781Z,54
2022-10-13T11:43:09.163Z,52
2022-10-13T11:48:25.307Z,53
2022-10-13T11:53:38.256Z,53
2022-10-13T11:58:50.703Z,52
2022-10-13T12:19:35.590Z,51
2022-10-13T12:29:58.863Z,52
2022-10-13T12:35:11.935Z,52
2022-10-13T12:55:58.714Z,54
2022-10-13T13:27:03.281Z,64
2022-10-13T13:32:15.891Z,62
2022-10-13T13:42:40.628Z,61
2022-10-13T14:18:54.953Z,72
2022-10-13T14:24:06.945Z,74
2022-10-13T14:29:19.060Z,74
2022-10-13T14:34:31.278Z,72
2022-10-13T14:39:43.424Z,73
2022-10-13T14:44:55.711Z,73
2022-10-13T14:50:08.051Z,71
2022-10-13T15:00:30.575Z,74
2022-10-13T15:05:42.599Z,74
2022-10-13T15:16:04.378Z,79
2022-10-13T15:21:16.572Z,81
2022-10-13T15:52:20.594Z,92
2022-10-13T16:02:54.912Z,95
2022-10-13T16:08:05.865Z,96
2022-10-13T16:13:17.781Z,96
2022-10-13T16:34:02.218Z,98
2022-10-13T16:39:14.338Z,98
2022-10-13T16:49:36.498Z,85
2022-10-13T16:54:48.785Z,80
2022-10-13T17:00:00.839Z,73
2022-10-13T17:05:12.972Z,64
2022-10-13T17:10:24.896Z,59
2022-10-13T17:15:37.285Z,44
2022-10-13T17:20:49.510Z,42
2022-10-13T17:26:01.535Z,32
2022-10-13T17:31:13.823Z,32
2022-10-13T17:36:26.076Z,30
2022-10-13T17:41:38.309Z,28
2022-10-13T17:46:50.614Z,29
2022-10-13T17:52:02.921Z,21
2022-10-13T17:57:15.288Z,23
2022-10-13T18:02:27.310Z,24
2022-10-13T18:07:39.600Z,24
2022-10-13T18:12:51.881Z,24
2022-10-13T18:18:03.938Z,24
2022-10-13T18:23:21.118Z,23
2022-10-13T18:28:33.829Z,23
2022-10-13T18:33:45.869Z,23
2022-10-13T18:38:57.953Z,21
2022-10-13T18:44:10.012Z,22
2022-10-13T18:49:34.689Z,14
2022-10-13T18:54:45.201Z,14
2022-10-13T18:59:57.074Z,14
2022-10-13T19:05:09.153Z,14
2022-10-13T19:10:21.338Z,14
2022-10-13T19:15:33.432Z,13
2022-10-13T19:20:51.033Z,12
2022-10-13T19:26:15.728Z,7
2022-10-13T19:31:25.666Z,7
2022-10-13T19:36:37.686Z,6
2022-10-13T19:47:01.802Z,6
2022-10-13T19:52:13.737Z,6
2022-10-13T19:57:26.002Z,6
2022-10-13T20:02:38.243Z,6
2022-10-13T20:07:50.486Z,5
2022-10-13T20:13:02.711Z,5
2022-10-13T20:18:14.806Z,5
2022-10-13T20:23:26.985Z,5
2022-10-13T20:28:44.420Z,4
2022-10-13T20:34:00.177Z,4
2022-10-13T20:39:12.247Z,4
2022-10-13T20:44:25.154Z,4
2022-10-13T20:49:37.047Z,4
2022-10-13T20:54:49.138Z,4
2022-10-13T21:00:01.071Z,4
2022-10-13T21:05:13.193Z,4
2022-10-13T21:10:25.109Z,3
2022-10-13T21:15:37.257Z,3
2022-10-13T21:20:48.977Z,3
2022-10-13T21:26:00.957Z,3
2022-10-13T21:31:12.597Z,3
2022-10-13T21:36:24.577Z,3
2022-10-13T21:41:36.425Z,3
2022-10-13T21:46:48.226Z,2
2022-10-13T21:52:00.200Z,2
2022-10-13T22:02:41.981Z,3
2022-10-13T22:07:53.581Z,3
2022-10-13T22:13:05.266Z,3
2022-10-13T22:18:17.302Z,3
2022-10-13T22:23:28.994Z,3
2022-10-13T22:28:42.183Z,3
2022-10-13T22:33:53.885Z,2
2022-10-13T22:39:05.903Z,2
2022-10-13T22:44:17.729Z,2
2022-10-13T22:49:29.593Z,2
2022-10-13T22:54:41.528Z,2
2022-10-13T22:59:53.354Z,2
2022-10-13T23:05:05.588Z,2
2022-10-13T23:10:17.467Z,2
2022-10-13T23:15:29.149Z,2
2022-10-13T23:20:41.091Z,2
2022-10-13T23:25:52.744Z,2
2022-10-13T23:31:04.598Z,3
2022-10-13T23:36:16.590Z,2
2022-10-13T23:41:28.431Z,2
2022-10-13T23:46:40.172Z,2
2022-10-13T23:51:51.986Z,2
2022-10-13T23:57:03.885Z,2
